Time;durP1;ratioP1;P1;durP2;ratioP2;P2;SDS_P1;SDS_P2;PMS_P1;PMS_P2;Temp;Humidity;BMP_temperature;BMP_pressure;BME280_temperature;BME280_humidity;BME280_pressure;Samples;Min_cycle;Max_cycle;Signal;HPM_P1;HPM_P2
2021/04/14 00:00:54;;;;;;;;;;;5.00;88.10;;;;;;4881113;29;19916;-89
2021/04/14 00:03:23;;;;;;;;;;;5.00;87.50;;;;;;4882226;29;20417;-89
2021/04/14 00:05:49;;;;;;;;;;;5.00;87.20;;;;;;4884843;29;19916;-88
2021/04/14 00:08:15;;;;;;;;;;;5.00;87.20;;;;;;4885410;29;20157;-90
2021/04/14 00:10:42;;;;;;;;;;;5.00;87.10;;;;;;4880465;29;20339;-92
2021/04/14 00:13:09;;;;;;;;;;;5.00;87.20;;;;;;4879942;29;19924;-89
2021/04/14 00:15:39;;;;;;;;;;;5.00;86.90;;;;;;4880081;29;19923;-90
2021/04/14 00:18:06;;;;;;;;;;;5.00;87.20;;;;;;4875419;29;20294;-90
2021/04/14 00:20:32;;;;;;;;;;;5.00;86.70;;;;;;4879087;29;19959;-89
2021/04/14 00:22:57;;;;;;;;;;;5.00;87.10;;;;;;4870410;29;20006;-89
2021/04/14 00:25:27;;;;;;;;;;;5.00;86.60;;;;;;4878545;29;19927;-89
2021/04/14 00:27:53;;;;;;;;;;;4.80;87.10;;;;;;4880364;29;20003;-89
2021/04/14 00:30:19;;;;;;;;;;;4.80;87.60;;;;;;4882519;29;19947;-91
2021/04/14 00:32:45;;;;;;;;;;;4.80;87.20;;;;;;4880553;29;19984;-89
2021/04/14 00:35:11;;;;;;;;;;;4.80;87.00;;;;;;4864238;29;20383;-89
2021/04/14 00:37:37;;;;;;;;;;;4.80;87.80;;;;;;4863299;29;19915;-90
2021/04/14 00:40:04;;;;;;;;;;;4.80;86.60;;;;;;4880484;29;19911;-88
2021/04/14 00:42:30;;;;;;;;;;;4.80;86.80;;;;;;4881199;29;19918;-90
2021/04/14 00:44:55;;;;;;;;;;;4.70;85.30;;;;;;4879923;29;19994;-91
2021/04/14 00:47:21;;;;;;;;;;;4.80;85.70;;;;;;4880050;29;19954;-91
2021/04/14 00:49:47;;;;;;;;;;;4.80;85.10;;;;;;4879211;29;19912;-89
2021/04/14 00:52:13;;;;;;;;;;;4.80;84.70;;;;;;4880730;29;19945;-90
2021/04/14 00:54:38;;;;;;;;;;;4.80;84.50;;;;;;4880628;29;19911;-90
2021/04/14 00:57:04;;;;;;;;;;;4.80;84.70;;;;;;4880500;29;19947;-90
2021/04/14 00:59:30;;;;;;;;;;;4.70;84.90;;;;;;4879661;29;19943;-90
2021/04/14 01:01:57;;;;;;;;;;;4.60;85.00;;;;;;4863825;29;19911;-89
2021/04/14 01:04:23;;;;;;;;;;;4.70;85.10;;;;;;4880597;29;19936;-89
2021/04/14 01:06:48;;;;;;;;;;;4.60;85.50;;;;;;4863233;29;19912;-91
2021/04/14 01:09:14;;;;;;;;;;;4.60;85.60;;;;;;4881442;29;19945;-91
2021/04/14 01:11:40;;;;;;;;;;;4.60;85.30;;;;;;4872094;29;19922;-92
2021/04/14 01:14:05;;;;;;;;;;;4.60;85.30;;;;;;4880529;29;20015;-90
2021/04/14 01:16:31;;;;;;;;;;;4.60;85.90;;;;;;4880814;29;19919;-92
2021/04/14 01:18:56;;;;;;;;;;;4.60;85.70;;;;;;4862504;29;19926;-90
2021/04/14 01:21:31;;;;;;;;;;;4.60;85.60;;;;;;4879450;29;19919;-91
2021/04/14 01:23:57;;;;;;;;;;;4.50;85.70;;;;;;4858946;29;20336;-92
2021/04/14 01:26:22;;;;;;;;;;;4.50;85.50;;;;;;4862971;29;19912;-90
2021/04/14 01:28:48;;;;;;;;;;;4.60;85.30;;;;;;4850390;29;19911;-91
2021/04/14 01:31:16;;;;;;;;;;;4.60;85.50;;;;;;4875582;29;19912;-89
2021/04/14 01:33:41;;;;;;;;;;;4.50;85.30;;;;;;4878467;29;19911;-92
2021/04/14 01:36:08;;;;;;;;;;;4.50;84.90;;;;;;4877114;29;20329;-90
2021/04/14 01:38:34;;;;;;;;;;;4.50;85.20;;;;;;4865435;29;20011;-90
2021/04/14 01:41:00;;;;;;;;;;;4.50;85.40;;;;;;4880003;29;19963;-90
2021/04/14 01:43:26;;;;;;;;;;;4.50;85.30;;;;;;4880087;29;19936;-91
2021/04/14 01:45:51;;;;;;;;;;;4.40;85.50;;;;;;4879454;29;19915;-91
2021/04/14 01:48:17;;;;;;;;;;;4.40;85.40;;;;;;4879648;29;19919;-92
2021/04/14 01:50:43;;;;;;;;;;;4.40;85.70;;;;;;4878794;29;19990;-89
2021/04/14 01:53:10;;;;;;;;;;;4.40;86.00;;;;;;4878485;29;20056;-89
2021/04/14 01:55:36;;;;;;;;;;;4.40;85.10;;;;;;4878604;29;20600;-88
2021/04/14 01:58:03;;;;;;;;;;;4.40;85.20;;;;;;4878560;29;19912;-89
2021/04/14 02:00:30;;;;;;;;;;;4.40;85.50;;;;;;4878706;29;19915;-91
2021/04/14 02:02:55;;;;;;;;;;;4.40;84.80;;;;;;4858785;29;19935;-89
2021/04/14 02:05:26;;;;;;;;;;;4.50;84.80;;;;;;4878310;29;19912;-92
2021/04/14 02:07:52;;;;;;;;;;;4.50;84.20;;;;;;4877960;29;20332;-88
2021/04/14 02:10:17;;;;;;;;;;;4.50;84.70;;;;;;4877960;29;19912;-90
2021/04/14 02:12:43;;;;;;;;;;;4.50;84.60;;;;;;4881928;29;19912;-89
2021/04/14 02:15:14;;;;;;;;;;;4.50;84.10;;;;;;4876959;29;20107;-89
2021/04/14 02:17:39;;;;;;;;;;;4.50;84.40;;;;;;4877863;29;19916;-91
2021/04/14 02:20:06;;;;;;;;;;;4.50;83.80;;;;;;4878712;29;19920;-89
2021/04/14 02:22:31;;;;;;;;;;;4.50;83.60;;;;;;4863651;29;19991;-93
2021/04/14 02:24:57;;;;;;;;;;;4.50;82.70;;;;;;4870200;29;20052;-91
2021/04/14 02:27:22;;;;;;;;;;;4.50;82.20;;;;;;4878553;29;19918;-90
2021/04/14 02:29:48;;;;;;;;;;;4.50;82.60;;;;;;4880164;29;20014;-89
2021/04/14 02:32:13;;;;;;;;;;;4.50;82.70;;;;;;4880180;29;19958;-90
2021/04/14 02:34:39;;;;;;;;;;;4.40;82.70;;;;;;4879358;29;19941;-91
2021/04/14 02:37:05;;;;;;;;;;;4.40;82.00;;;;;;4880870;29;19920;-93
2021/04/14 02:39:30;;;;;;;;;;;4.40;80.80;;;;;;4867130;29;20289;-91
2021/04/14 02:41:56;;;;;;;;;;;4.40;81.80;;;;;;4878903;29;19911;-90
2021/04/14 02:44:21;;;;;;;;;;;4.40;81.60;;;;;;4879762;29;19912;-92
2021/04/14 02:46:47;;;;;;;;;;;4.40;80.70;;;;;;4875424;29;20063;-90
2021/04/14 02:49:13;;;;;;;;;;;4.50;81.50;;;;;;4863240;29;19918;-90
2021/04/14 02:51:38;;;;;;;;;;;4.50;81.60;;;;;;4879635;29;19919;-91
2021/04/14 02:54:04;;;;;;;;;;;4.50;81.60;;;;;;4878403;29;19912;-88
2021/04/14 02:56:29;;;;;;;;;;;4.50;82.20;;;;;;4879084;29;19966;-90
2021/04/14 02:58:55;;;;;;;;;;;4.40;81.70;;;;;;4879864;29;19915;-88
2021/04/14 03:01:20;;;;;;;;;;;4.50;82.10;;;;;;4880748;29;19927;-90
2021/04/14 03:03:46;;;;;;;;;;;4.40;82.60;;;;;;4878552;29;19912;-88
2021/04/14 03:06:11;;;;;;;;;;;4.40;82.70;;;;;;4878143;29;19912;-90
2021/04/14 03:08:37;;;;;;;;;;;4.40;82.80;;;;;;4878765;29;20344;-90
2021/04/14 03:11:03;;;;;;;;;;;4.40;83.40;;;;;;4861667;29;20340;-90
2021/04/14 03:13:28;;;;;;;;;;;4.40;83.40;;;;;;4879048;29;19950;-89
2021/04/14 03:15:54;;;;;;;;;;;4.40;83.80;;;;;;4880504;29;19927;-88
2021/04/14 03:18:19;;;;;;;;;;;4.30;83.60;;;;;;4867946;29;20002;-89
2021/04/14 03:20:45;;;;;;;;;;;4.30;83.40;;;;;;4884337;29;19977;-93
2021/04/14 03:23:11;;;;;;;;;;;4.30;83.60;;;;;;4883687;29;19912;-90
2021/04/14 03:25:37;;;;;;;;;;;4.30;84.00;;;;;;4866627;29;19908;-90
2021/04/14 03:28:04;;;;;;;;;;;4.20;83.30;;;;;;4882230;29;19911;-90
2021/04/14 03:30:29;;;;;;;;;;;4.30;83.50;;;;;;4881350;29;19995;-92
2021/04/14 03:32:55;;;;;;;;;;;4.20;84.20;;;;;;4865043;29;19955;-89
2021/04/14 03:35:22;;;;;;;;;;;4.20;85.00;;;;;;4868432;29;20644;-89
2021/04/14 03:37:47;;;;;;;;;;;4.20;84.00;;;;;;4865654;29;19985;-90
2021/04/14 03:40:13;;;;;;;;;;;4.20;84.20;;;;;;4883183;29;19911;-91
2021/04/14 03:42:39;;;;;;;;;;;4.10;84.40;;;;;;4885827;29;19915;-89
2021/04/14 03:45:11;;;;;;;;;;;4.10;84.70;;;;;;4882261;29;20268;-89
2021/04/14 03:47:37;;;;;;;;;;;4.00;85.00;;;;;;4884407;29;19912;-90
2021/04/14 03:50:04;;;;;;;;;;;4.10;85.00;;;;;;4887833;29;19927;-91
2021/04/14 03:52:30;;;;;;;;;;;4.10;85.20;;;;;;4886005;29;20424;-90
2021/04/14 03:54:55;;;;;;;;;;;4.00;84.80;;;;;;4881749;29;19911;-91
2021/04/14 03:57:21;;;;;;;;;;;4.00;85.30;;;;;;4881385;29;19968;-91
2021/04/14 03:59:46;;;;;;;;;;;4.10;85.00;;;;;;4880713;29;19912;-89
2021/04/14 04:02:12;;;;;;;;;;;4.10;85.10;;;;;;4881087;29;19908;-89
2021/04/14 04:04:37;;;;;;;;;;;4.10;84.90;;;;;;4880329;29;19912;-89
2021/04/14 04:07:03;;;;;;;;;;;4.10;84.80;;;;;;4881507;29;20419;-89
2021/04/14 04:09:28;;;;;;;;;;;4.10;84.40;;;;;;4881651;29;19922;-93
2021/04/14 04:11:54;;;;;;;;;;;4.10;85.10;;;;;;4881388;29;19959;-90
2021/04/14 04:14:20;;;;;;;;;;;4.10;84.60;;;;;;4884834;29;19931;-90
2021/04/14 04:16:45;;;;;;;;;;;4.10;84.90;;;;;;4879855;29;19983;-89
2021/04/14 04:19:11;;;;;;;;;;;4.10;84.90;;;;;;4882894;29;20006;-90
2021/04/14 04:21:36;;;;;;;;;;;4.10;85.10;;;;;;4866971;29;20007;-89
2021/04/14 04:24:03;;;;;;;;;;;4.10;85.10;;;;;;4882583;29;19907;-90
2021/04/14 04:26:28;;;;;;;;;;;4.10;85.10;;;;;;4882720;29;19915;-91
2021/04/14 04:28:54;;;;;;;;;;;4.10;85.10;;;;;;4883375;29;19918;-92
2021/04/14 04:31:19;;;;;;;;;;;4.10;85.10;;;;;;4880819;29;20011;-92
2021/04/14 04:33:45;;;;;;;;;;;4.10;85.10;;;;;;4882927;29;20006;-92
2021/04/14 04:36:11;;;;;;;;;;;4.20;84.90;;;;;;4882367;29;20354;-90
2021/04/14 04:38:37;;;;;;;;;;;4.20;85.30;;;;;;4882926;29;19991;-91
2021/04/14 04:41:03;;;;;;;;;;;4.00;84.30;;;;;;4882441;29;19960;-90
2021/04/14 04:43:29;;;;;;;;;;;4.10;85.00;;;;;;4881548;29;19965;-92
2021/04/14 04:45:55;;;;;;;;;;;4.10;84.80;;;;;;4864134;29;19923;-90
2021/04/14 04:48:21;;;;;;;;;;;4.20;84.80;;;;;;4884015;29;19924;-90
2021/04/14 04:50:46;;;;;;;;;;;4.10;85.10;;;;;;4882440;29;20419;-90
2021/04/14 04:53:14;;;;;;;;;;;4.10;84.90;;;;;;4880477;29;19908;-89
2021/04/14 04:55:43;;;;;;;;;;;4.10;85.10;;;;;;4880039;29;19924;-87
2021/04/14 04:58:09;;;;;;;;;;;4.20;85.00;;;;;;4882127;29;20006;-91
2021/04/14 05:00:34;;;;;;;;;;;4.10;84.50;;;;;;4881754;29;20228;-91
2021/04/14 05:03:00;;;;;;;;;;;4.10;84.40;;;;;;4879089;29;20374;-89
2021/04/14 05:05:27;;;;;;;;;;;4.10;85.60;;;;;;4881388;29;19919;-92
2021/04/14 05:07:52;;;;;;;;;;;4.20;85.10;;;;;;4863641;29;19911;-87
2021/04/14 05:10:18;;;;;;;;;;;4.20;84.80;;;;;;4881833;29;19923;-88
2021/04/14 05:12:47;;;;;;;;;;;4.20;84.90;;;;;;4878700;29;19912;-88
2021/04/14 05:15:13;;;;;;;;;;;4.20;85.10;;;;;;4882879;29;19959;-89
2021/04/14 05:17:38;;;;;;;;;;;4.20;84.50;;;;;;4880011;29;20332;-91
2021/04/14 05:20:05;;;;;;;;;;;4.30;84.60;;;;;;4881197;29;20378;-90
2021/04/14 05:22:31;;;;;;;;;;;4.30;84.60;;;;;;4862570;29;19938;-87
2021/04/14 05:24:57;;;;;;;;;;;4.30;84.30;;;;;;4878991;29;20390;-91
2021/04/14 05:27:22;;;;;;;;;;;4.40;84.40;;;;;;4863102;29;19947;-90
2021/04/14 05:29:49;;;;;;;;;;;4.40;84.40;;;;;;4879280;29;20470;-89
2021/04/14 05:32:14;;;;;;;;;;;4.30;84.30;;;;;;4870977;29;20407;-90
2021/04/14 05:34:40;;;;;;;;;;;4.30;85.30;;;;;;4880232;29;20348;-91
2021/04/14 05:37:05;;;;;;;;;;;4.30;86.40;;;;;;4863206;29;19920;-89
2021/04/14 05:39:31;;;;;;;;;;;4.20;87.10;;;;;;4869025;29;19912;-88
2021/04/14 05:41:56;;;;;;;;;;;3.90;90.20;;;;;;4879865;29;20323;-90
2021/04/14 05:44:22;;;;;;;;;;;3.80;90.40;;;;;;4881856;29;19923;-91
2021/04/14 05:46:47;;;;;;;;;;;3.80;90.40;;;;;;4863180;29;19918;-88
2021/04/14 05:49:13;;;;;;;;;;;3.70;91.10;;;;;;4879310;29;19911;-90
2021/04/14 05:51:39;;;;;;;;;;;3.60;91.50;;;;;;4879642;29;19912;-90
2021/04/14 05:54:04;;;;;;;;;;;3.50;91.80;;;;;;4863689;29;20283;-86
2021/04/14 05:56:30;;;;;;;;;;;3.50;92.00;;;;;;4879071;29;19923;-89
2021/04/14 05:58:56;;;;;;;;;;;3.40;92.60;;;;;;4880210;29;19912;-90
2021/04/14 06:01:23;;;;;;;;;;;3.40;92.60;;;;;;4880497;29;19912;-90
2021/04/14 06:03:49;;;;;;;;;;;3.20;92.40;;;;;;4880746;29;19915;-89
2021/04/14 06:06:15;;;;;;;;;;;3.00;93.40;;;;;;4866061;29;19912;-90
2021/04/14 06:08:41;;;;;;;;;;;3.00;94.10;;;;;;4862712;29;19934;-90
2021/04/14 06:11:07;;;;;;;;;;;2.90;94.20;;;;;;4866124;29;19915;-89
2021/04/14 06:13:33;;;;;;;;;;;2.90;94.70;;;;;;4874931;29;19912;-90
2021/04/14 06:15:59;;;;;;;;;;;2.80;95.00;;;;;;4879086;29;19930;-90
2021/04/14 06:18:24;;;;;;;;;;;2.80;94.10;;;;;;4878464;29;20010;-92
2021/04/14 06:20:50;;;;;;;;;;;2.70;94.70;;;;;;4862748;29;19916;-89
2021/04/14 06:23:17;;;;;;;;;;;2.70;95.00;;;;;;4875453;29;19917;-88
2021/04/14 06:26:15;;;;;;;;;;;2.80;95.40;;;;;;4879113;29;19912;-93
2021/04/14 06:28:41;;;;;;;;;;;2.70;95.40;;;;;;4868324;29;19943;-92
2021/04/14 06:31:07;;;;;;;;;;;2.80;95.00;;;;;;4884362;29;19919;-90
2021/04/14 06:33:35;;;;;;;;;;;2.80;95.20;;;;;;4881787;29;20051;-88
2021/04/14 06:36:01;;;;;;;;;;;2.80;95.40;;;;;;4883002;29;19915;-92
2021/04/14 06:38:30;;;;;;;;;;;2.80;95.30;;;;;;4863211;29;19963;-90
2021/04/14 06:44:06;;;;;;;;;;;2.80;95.00;;;;;;4878314;29;19918;-89
2021/04/14 06:46:33;;;;;;;;;;;2.90;95.50;;;;;;4861168;29;19918;-90
2021/04/14 06:49:14;;;;;;;;;;;2.90;95.20;;;;;;4877499;29;20293;-89
2021/04/14 06:51:52;;;;;;;;;;;2.90;95.40;;;;;;4866665;29;20023;-89
2021/04/14 06:54:24;;;;;;;;;;;3.00;95.30;;;;;;4882569;29;20286;-90
2021/04/14 06:56:51;;;;;;;;;;;3.00;94.80;;;;;;4880223;29;19920;-90
2021/04/14 06:59:21;;;;;;;;;;;3.00;94.20;;;;;;4865932;29;20260;-90
2021/04/14 07:02:06;;;;;;;;;;;3.20;94.20;;;;;;4867029;29;19912;-91
2021/04/14 07:04:44;;;;;;;;;;;3.30;94.00;;;;;;4877923;29;19960;-89
2021/04/14 07:07:13;;;;;;;;;;;3.30;93.70;;;;;;4881405;29;19916;-90
2021/04/14 07:09:42;;;;;;;;;;;3.30;93.50;;;;;;4882171;29;19923;-93
2021/04/14 07:12:10;;;;;;;;;;;3.30;93.60;;;;;;4880846;29;19920;-87
2021/04/14 07:14:36;;;;;;;;;;;3.30;93.20;;;;;;4881735;29;19918;-90
2021/04/14 07:17:11;;;;;;;;;;;3.40;93.30;;;;;;4869056;29;20313;-91
2021/04/14 07:19:52;;;;;;;;;;;3.30;93.20;;;;;;4893178;29;19907;-90
2021/04/14 07:22:43;;;;;;;;;;;3.40;93.20;;;;;;4865131;29;19947;-90
2021/04/14 07:25:14;;;;;;;;;;;3.30;93.30;;;;;;4881804;29;19916;-88
2021/04/14 07:27:54;;;;;;;;;;;3.30;93.20;;;;;;4882278;29;20363;-88
2021/04/14 07:30:22;;;;;;;;;;;3.30;93.10;;;;;;4867444;29;19919;-90
2021/04/14 07:32:48;;;;;;;;;;;3.20;93.40;;;;;;4882951;29;20290;-89
2021/04/14 07:35:18;;;;;;;;;;;3.20;93.40;;;;;;4863996;29;19912;-89
2021/04/14 07:37:56;;;;;;;;;;;3.20;93.40;;;;;;4881798;29;19924;-90
2021/04/14 07:40:24;;;;;;;;;;;3.10;93.70;;;;;;4878191;29;19911;-89
2021/04/14 07:42:53;;;;;;;;;;;3.00;93.80;;;;;;4889538;29;19916;-89
2021/04/14 07:45:25;;;;;;;;;;;3.00;93.90;;;;;;4882845;29;20006;-87
2021/04/14 07:47:56;;;;;;;;;;;3.00;93.90;;;;;;4877502;29;19960;-88
2021/04/14 07:50:23;;;;;;;;;;;3.00;93.80;;;;;;4878482;29;20282;-89
2021/04/14 07:52:49;;;;;;;;;;;3.00;93.70;;;;;;4883098;29;19915;-89
2021/04/14 07:55:25;;;;;;;;;;;3.10;93.70;;;;;;4875255;29;19971;-89
2021/04/14 07:57:51;;;;;;;;;;;3.10;94.00;;;;;;4883504;29;19919;-88
2021/04/14 08:00:25;;;;;;;;;;;3.20;93.90;;;;;;4869250;29;20076;-89
2021/04/14 08:02:50;;;;;;;;;;;3.10;93.80;;;;;;4865777;29;20243;-88
2021/04/14 08:05:22;;;;;;;;;;;3.10;93.80;;;;;;4879935;29;19911;-88
2021/04/14 08:07:48;;;;;;;;;;;3.10;94.20;;;;;;4879956;29;19916;-87
2021/04/14 08:10:18;;;;;;;;;;;3.10;94.00;;;;;;4884612;29;19911;-88
2021/04/14 08:13:03;;;;;;;;;;;3.10;94.10;;;;;;4878569;29;20278;-88
2021/04/14 08:15:31;;;;;;;;;;;3.20;94.10;;;;;;4879658;29;19920;-89
2021/04/14 08:18:09;;;;;;;;;;;3.20;94.10;;;;;;4883745;29;19959;-89
2021/04/14 08:20:36;;;;;;;;;;;3.20;94.20;;;;;;4872521;29;19960;-89
2021/04/14 08:23:28;;;;;;;;;;;3.20;94.60;;;;;;4884453;29;19955;-88
2021/04/14 08:25:55;;;;;;;;;;;3.10;94.10;;;;;;4876453;29;20011;-88
2021/04/14 08:28:30;;;;;;;;;;;3.10;94.20;;;;;;4882268;29;19919;-88
2021/04/14 08:31:06;;;;;;;;;;;3.10;94.40;;;;;;4878839;29;19920;-88
2021/04/14 08:33:32;;;;;;;;;;;3.20;94.50;;;;;;4884298;29;19911;-91
2021/04/14 08:36:05;;;;;;;;;;;3.30;94.40;;;;;;4882923;29;20247;-89
2021/04/14 08:38:31;;;;;;;;;;;3.20;94.30;;;;;;4879163;29;19968;-88
2021/04/14 08:40:58;;;;;;;;;;;3.40;94.50;;;;;;4878543;29;19916;-87
2021/04/14 08:43:32;;;;;;;;;;;3.30;94.30;;;;;;4878563;29;19911;-88
2021/04/14 08:46:07;;;;;;;;;;;3.30;94.20;;;;;;4859896;29;19966;-88
2021/04/14 08:48:33;;;;;;;;;;;3.30;94.60;;;;;;4878439;29;19911;-86
2021/04/14 08:51:04;;;;;;;;;;;3.20;94.70;;;;;;4878093;29;19912;-89
2021/04/14 08:53:35;;;;;;;;;;;3.20;95.20;;;;;;4879805;29;19922;-85
2021/04/14 08:56:00;;;;;;;;;;;3.20;94.70;;;;;;4879259;29;19978;-87
2021/04/14 08:58:26;;;;;;;;;;;3.30;95.20;;;;;;4879387;29;19943;-86
2021/04/14 09:00:52;;;;;;;;;;;3.30;94.90;;;;;;4881883;29;20026;-87
2021/04/14 09:03:20;;;;;;;;;;;3.20;94.70;;;;;;4882577;29;19912;-88
2021/04/14 09:05:46;;;;;;;;;;;3.20;95.30;;;;;;4877574;29;19916;-89
2021/04/14 09:08:17;;;;;;;;;;;3.20;95.50;;;;;;4882464;29;20315;-86
2021/04/14 09:10:53;;;;;;;;;;;3.30;95.10;;;;;;4880563;29;19918;-86
2021/04/14 09:13:30;;;;;;;;;;;3.20;95.00;;;;;;4885355;29;19937;-89
2021/04/14 09:15:58;;;;;;;;;;;3.20;94.50;;;;;;4877429;29;20409;-86
2021/04/14 09:18:24;;;;;;;;;;;3.20;94.90;;;;;;4878977;29;19970;-90
2021/04/14 09:20:50;;;;;;;;;;;3.20;94.80;;;;;;4878685;29;19939;-88
2021/04/14 09:23:26;;;;;;;;;;;3.20;95.00;;;;;;4877001;29;19912;-87
2021/04/14 09:25:51;;;;;;;;;;;3.30;95.10;;;;;;4878871;29;20278;-84
2021/04/14 09:28:43;;;;;;;;;;;3.20;94.30;;;;;;4877972;29;19916;-85
2021/04/14 09:31:10;;;;;;;;;;;3.10;95.00;;;;;;4876108;29;19926;-88
2021/04/14 09:33:46;;;;;;;;;;;3.10;94.90;;;;;;5108782;27;19931;-68
2021/04/14 09:36:14;;;;;;;;;;;3.00;95.20;;;;;;5103692;28;19920;-68
2021/04/14 09:38:51;;;;;;;;;;;3.00;95.00;;;;;;5102608;28;19956;-68
2021/04/14 09:41:22;;;;;;;;;;;2.90;95.00;;;;;;5105326;28;19912;-68
2021/04/14 09:43:48;;;;;;;;;;;3.00;95.40;;;;;;5100169;28;20019;-69
2021/04/14 09:46:32;;;;;;;;;;;3.10;95.10;;;;;;5102817;28;19978;-68
2021/04/14 09:49:15;;;;;;;;;;;3.10;95.20;;;;;;5098381;28;20396;-67
2021/04/14 09:51:42;;;;;;;;;;;3.00;95.10;;;;;;5104809;28;19920;-67
2021/04/14 09:54:08;;;;;;;;;;;3.00;95.00;;;;;;5098219;28;20317;-69
2021/04/14 09:56:34;;;;;;;;;;;3.00;95.40;;;;;;5123502;27;19964;-69
2021/04/14 09:59:18;;;;;;;;;;;3.00;95.40;;;;;;5096100;28;19912;-69
2021/04/14 10:01:44;;;;;;;;;;;3.10;95.50;;;;;;5099730;28;20345;-68
2021/04/14 10:04:17;;;;;;;;;;;3.00;95.20;;;;;;5097203;28;19916;-68
2021/04/14 10:06:42;;;;;;;;;;;3.10;95.40;;;;;;5102018;28;19912;-68
2021/04/14 10:09:09;;;;;;;;;;;3.20;95.10;;;;;;5094569;28;20392;-69
2021/04/14 10:11:36;;;;;;;;;;;3.20;95.20;;;;;;5096554;28;19929;-68
2021/04/14 10:14:13;;;;;;;;;;;3.20;95.40;;;;;;5096877;28;19912;-68
2021/04/14 10:16:38;;;;;;;;;;;3.20;95.20;;;;;;5095238;28;19919;-69
2021/04/14 10:19:07;;;;;;;;;;;3.20;95.10;;;;;;5098322;28;19951;-69
2021/04/14 10:21:35;;;;;;;;;;;3.30;95.40;;;;;;5098978;28;20280;-69
2021/04/14 10:24:04;;;;;;;;;;;3.30;95.20;;;;;;5092233;28;19912;-69
2021/04/14 10:26:30;;;;;;;;;;;3.20;95.10;;;;;;5103034;28;19913;-69
2021/04/14 10:28:58;;;;;;;;;;;3.20;94.90;;;;;;5092756;28;20097;-69
2021/04/14 10:31:24;;;;;;;;;;;3.20;95.40;;;;;;5097529;28;20491;-69
2021/04/14 10:33:49;;;;;;;;;;;3.10;95.10;;;;;;5101432;28;19998;-69
2021/04/14 10:36:23;;;;;;;;;;;3.10;95.00;;;;;;5101911;28;20002;-69
2021/04/14 10:38:49;;;;;;;;;;;3.10;95.50;;;;;;5103957;28;19912;-69
2021/04/14 10:41:23;;;;;;;;;;;3.10;95.30;;;;;;5105852;28;19984;-69
2021/04/14 10:43:49;;;;;;;;;;;3.10;95.20;;;;;;5095293;28;19919;-69
2021/04/14 10:46:21;;;;;;;;;;;3.20;95.00;;;;;;5084932;28;19920;-69
2021/04/14 10:48:56;;;;;;;;;;;3.10;94.80;;;;;;5081006;28;19928;-69
2021/04/14 10:51:23;;;;;;;;;;;3.20;95.10;;;;;;5077617;28;19912;-69
2021/04/14 10:53:52;;;;;;;;;;;3.10;94.60;;;;;;5084891;28;20369;-69
2021/04/14 10:56:23;;;;;;;;;;;3.10;94.70;;;;;;5085894;28;19920;-70
2021/04/14 10:58:49;;;;;;;;;;;3.00;95.00;;;;;;5087802;28;19924;-70
2021/04/14 11:01:16;;;;;;;;;;;3.10;95.40;;;;;;5083848;28;19920;-70
2021/04/14 11:03:43;;;;;;;;;;;3.10;95.30;;;;;;5060029;28;20389;-69
2021/04/14 11:06:10;;;;;;;;;;;3.10;94.70;;;;;;5038655;28;19919;-69
2021/04/14 11:08:36;;;;;;;;;;;3.10;94.70;;;;;;5047185;28;19928;-69
2021/04/14 11:11:02;;;;;;;;;;;3.10;94.70;;;;;;5046003;28;19917;-69
2021/04/14 11:13:29;;;;;;;;;;;3.10;94.80;;;;;;5041909;28;19940;-69
2021/04/14 11:15:54;;;;;;;;;;;3.00;94.80;;;;;;5048407;28;19913;-69
2021/04/14 11:18:37;;;;;;;;;;;3.00;94.80;;;;;;5041710;28;20004;-69
2021/04/14 11:23:30;;;;;;;;;;;3.10;95.00;;;;;;5047866;28;19924;-69
2021/04/14 11:26:34;;;;;;;;;;;3.20;94.90;;;;;;5039652;28;19921;-69
2021/04/14 11:28:59;;;;;;;;;;;3.10;94.70;;;;;;4978180;28;20053;-69
2021/04/14 11:31:28;;;;;;;;;;;3.10;94.70;;;;;;4976270;28;20017;-69
2021/04/14 11:33:54;;;;;;;;;;;3.10;94.90;;;;;;4965570;28;19949;-69
2021/04/14 11:36:30;;;;;;;;;;;3.10;94.80;;;;;;4973689;28;20276;-69
2021/04/14 11:38:58;;;;;;;;;;;3.20;95.00;;;;;;4977249;28;19957;-69
2021/04/14 11:41:29;;;;;;;;;;;3.10;94.50;;;;;;4980069;28;19973;-69
2021/04/14 11:43:55;;;;;;;;;;;3.10;95.20;;;;;;4978898;28;19963;-70
2021/04/14 11:46:23;;;;;;;;;;;3.00;95.40;;;;;;4978165;28;19954;-69
2021/04/14 11:48:54;;;;;;;;;;;3.00;95.40;;;;;;4978042;28;20020;-69
2021/04/14 11:51:28;;;;;;;;;;;3.10;95.40;;;;;;4978912;28;20391;-69
2021/04/14 11:53:56;;;;;;;;;;;3.10;95.50;;;;;;4975465;28;19914;-69
2021/04/14 11:56:24;;;;;;;;;;;3.00;95.90;;;;;;4978638;28;19914;-69
2021/04/14 11:58:50;;;;;;;;;;;3.00;95.90;;;;;;4988372;28;19914;-69
2021/04/14 12:01:20;;;;;;;;;;;3.00;95.70;;;;;;5044044;28;20452;-69
2021/04/14 12:04:17;;;;;;;;;;;3.10;96.30;;;;;;5043173;28;20017;-69
2021/04/14 12:07:02;;;;;;;;;;;3.00;95.70;;;;;;5039185;28;20004;-68
2021/04/14 12:09:32;;;;;;;;;;;3.00;95.30;;;;;;5039089;28;19921;-68
2021/04/14 12:12:10;;;;;;;;;;;3.00;95.90;;;;;;5043812;28;19928;-70
2021/04/14 12:14:37;;;;;;;;;;;3.10;95.90;;;;;;5044366;28;19919;-69
2021/04/14 12:17:06;;;;;;;;;;;3.10;95.70;;;;;;5040159;28;20278;-69
2021/04/14 12:19:32;;;;;;;;;;;3.00;95.30;;;;;;5039810;28;19955;-70
2021/04/14 12:21:59;;;;;;;;;;;3.00;95.40;;;;;;5045524;28;19913;-69
2021/04/14 12:24:25;;;;;;;;;;;3.00;95.70;;;;;;5041775;28;19924;-70
2021/04/14 12:26:51;;;;;;;;;;;3.00;95.90;;;;;;5041476;28;19913;-69
2021/04/14 12:29:16;;;;;;;;;;;3.00;95.40;;;;;;5043146;28;20433;-68
2021/04/14 12:31:43;;;;;;;;;;;3.10;95.70;;;;;;5037750;28;19921;-70
2021/04/14 12:34:10;;;;;;;;;;;3.20;95.60;;;;;;5044367;28;19959;-70
2021/04/14 12:36:45;;;;;;;;;;;3.20;95.50;;;;;;5036417;28;20013;-70
2021/04/14 12:39:11;;;;;;;;;;;3.20;95.50;;;;;;5041766;28;19913;-70
2021/04/14 12:41:43;;;;;;;;;;;3.30;95.50;;;;;;5044670;28;20067;-70
2021/04/14 12:44:13;;;;;;;;;;;3.30;95.20;;;;;;5038789;28;20030;-70
2021/04/14 12:46:47;;;;;;;;;;;3.20;95.10;;;;;;5041088;28;20577;-70
2021/04/14 12:49:22;;;;;;;;;;;3.20;95.10;;;;;;5040893;28;19920;-69
2021/04/14 12:51:55;;;;;;;;;;;3.30;95.30;;;;;;5042061;28;19921;-70
2021/04/14 12:54:21;;;;;;;;;;;3.30;95.50;;;;;;5042996;28;19921;-69
2021/04/14 12:57:01;;;;;;;;;;;3.30;95.00;;;;;;5041951;28;19966;-70
2021/04/14 12:59:47;;;;;;;;;;;3.20;95.30;;;;;;5039729;28;19920;-68
2021/04/14 13:02:15;;;;;;;;;;;3.20;95.30;;;;;;5040746;28;19947;-68
2021/04/14 13:05:02;;;;;;;;;;;3.30;95.40;;;;;;5040572;28;19917;-69
2021/04/14 13:07:34;;;;;;;;;;;3.30;95.50;;;;;;5038299;28;19966;-68
2021/04/14 13:10:03;;;;;;;;;;;3.30;95.40;;;;;;5042970;28;19923;-68
2021/04/14 13:12:30;;;;;;;;;;;3.40;95.30;;;;;;5039202;28;19921;-67
2021/04/14 13:14:56;;;;;;;;;;;3.40;95.20;;;;;;5037342;28;20391;-69
2021/04/14 13:17:25;;;;;;;;;;;3.40;94.70;;;;;;5042357;28;20008;-69
2021/04/14 13:19:51;;;;;;;;;;;3.40;95.30;;;;;;5037885;28;20015;-69
2021/04/14 13:22:19;;;;;;;;;;;3.40;95.10;;;;;;5039140;28;20016;-69
2021/04/14 13:24:48;;;;;;;;;;;3.40;95.40;;;;;;5042739;28;19968;-69
2021/04/14 13:27:14;;;;;;;;;;;3.50;95.60;;;;;;5050833;28;20277;-69
2021/04/14 13:29:44;;;;;;;;;;;3.50;95.40;;;;;;5042960;28;19999;-69
2021/04/14 13:32:28;;;;;;;;;;;3.50;95.10;;;;;;5039138;28;19940;-69
2021/04/14 13:34:56;;;;;;;;;;;3.40;95.00;;;;;;5035072;28;19917;-70
2021/04/14 13:37:29;;;;;;;;;;;3.40;95.30;;;;;;5038051;28;19939;-69
2021/04/14 13:39:57;;;;;;;;;;;3.40;95.50;;;;;;5038508;28;19927;-69
2021/04/14 13:42:35;;;;;;;;;;;3.50;95.20;;;;;;5037066;28;19971;-68
2021/04/14 13:45:07;;;;;;;;;;;3.40;94.90;;;;;;5042328;28;19921;-68
2021/04/14 13:47:52;;;;;;;;;;;3.40;95.10;;;;;;5039884;28;19913;-70
2021/04/14 13:50:33;;;;;;;;;;;3.40;95.50;;;;;;5036762;28;19913;-71
2021/04/14 13:53:00;;;;;;;;;;;3.30;95.30;;;;;;5037811;28;20058;-70
2021/04/14 13:55:26;;;;;;;;;;;3.40;95.60;;;;;;5038739;28;20321;-69
2021/04/14 13:57:54;;;;;;;;;;;3.30;95.20;;;;;;5042095;28;19920;-69
2021/04/14 14:00:23;;;;;;;;;;;3.30;95.30;;;;;;5042190;28;19912;-69
2021/04/14 14:02:53;;;;;;;;;;;3.30;95.70;;;;;;5034535;28;20839;-70
2021/04/14 14:05:30;;;;;;;;;;;3.30;95.60;;;;;;5042617;28;19936;-70
2021/04/14 14:08:07;;;;;;;;;;;3.30;95.60;;;;;;5037296;28;19921;-70
2021/04/14 14:10:35;;;;;;;;;;;3.30;95.50;;;;;;5040245;28;19956;-70
2021/04/14 14:13:03;;;;;;;;;;;3.20;95.70;;;;;;5042834;28;20527;-70
2021/04/14 14:15:30;;;;;;;;;;;3.20;95.50;;;;;;5042808;28;19946;-70
2021/04/14 14:17:56;;;;;;;;;;;3.20;95.80;;;;;;5036093;28;19920;-70
2021/04/14 14:20:25;;;;;;;;;;;3.30;95.80;;;;;;5045782;28;19916;-70
2021/04/14 14:23:13;;;;;;;;;;;3.30;95.80;;;;;;5038297;28;20003;-70
2021/04/14 14:25:39;;;;;;;;;;;3.30;95.40;;;;;;5045385;28;19913;-70
2021/04/14 14:28:05;;;;;;;;;;;3.30;95.60;;;;;;5044503;28;20021;-69
2021/04/14 14:30:30;;;;;;;;;;;3.30;95.70;;;;;;5044833;28;19992;-70
2021/04/14 14:32:57;;;;;;;;;;;3.30;95.80;;;;;;5042108;28;19921;-70
2021/04/14 14:35:24;;;;;;;;;;;3.30;95.90;;;;;;5049445;28;20373;-70
2021/04/14 14:37:52;;;;;;;;;;;3.40;96.00;;;;;;5049676;28;20023;-68
2021/04/14 14:40:23;;;;;;;;;;;3.40;95.90;;;;;;5045736;28;19913;-70
2021/04/14 14:42:58;;;;;;;;;;;3.30;95.70;;;;;;5047525;28;20293;-70
2021/04/14 14:45:26;;;;;;;;;;;3.40;95.80;;;;;;5042023;28;19917;-70